Time;durP1;ratioP1;P1;durP2;ratioP2;P2;SDS_P1;SDS_P2;PMS_P1;PMS_P2;Temp;Humidity;BMP_temperature;BMP_pressure;BME280_temperature;BME280_humidity;BME280_pressure;Samples;Min_cycle;Max_cycle;Signal;HPM_P1;HPM_P2
2021/04/12 00:02:16;;;;;;;13.70;9.32;;;9.90;99.90;;;;;;5096265;28;20211;-66
2021/04/12 00:04:47;;;;;;;11.38;6.72;;;9.80;99.90;;;;;;5096293;28;20199;-65
2021/04/12 00:07:28;;;;;;;9.82;7.22;;;9.80;99.90;;;;;;5114676;28;20209;-67
2021/04/12 00:10:00;;;;;;;10.65;6.20;;;9.80;99.90;;;;;;5114689;28;20262;-67
2021/04/12 00:12:28;;;;;;;10.23;6.90;;;9.80;99.90;;;;;;5096246;28;20197;-66
2021/04/12 00:14:57;;;;;;;9.90;7.05;;;9.80;99.90;;;;;;5114403;28;20179;-67
2021/04/12 00:17:40;;;;;;;12.68;7.95;;;9.70;99.90;;;;;;5114274;28;20541;-66
2021/04/12 00:20:25;;;;;;;14.00;7.95;;;9.70;99.90;;;;;;5114195;28;20174;-66
2021/04/12 00:23:06;;;;;;;9.60;5.55;;;9.60;99.90;;;;;;5114705;28;20219;-66
2021/04/12 00:25:41;;;;;;;8.88;6.65;;;9.90;99.90;;;;;;5114409;28;20160;-66
2021/04/12 00:28:17;;;;;;;7.65;6.85;;;9.80;99.90;;;;;;5114827;28;20210;-67
2021/04/12 00:30:49;;;;;;;10.10;8.55;;;10.00;99.90;;;;;;5114173;28;20171;-66
2021/04/12 00:34:02;;;;;;;9.35;7.85;;;10.10;99.90;;;;;;5114780;28;20206;-66
2021/04/12 00:36:42;;;;;;;11.50;7.97;;;10.00;99.90;;;;;;5086475;28;20617;-66
2021/04/12 00:39:37;;;;;;;15.18;7.97;;;10.10;99.90;;;;;;5114237;28;20196;-66
2021/04/12 00:42:28;;;;;;;8.77;6.32;;;10.10;99.90;;;;;;5114349;28;20228;-65
2021/04/12 00:45:08;;;;;;;9.00;7.82;;;10.00;99.90;;;;;;5114090;28;20235;-66
2021/04/12 00:48:02;;;;;;;18.13;9.52;;;9.80;99.90;;;;;;5096015;28;20179;-66
2021/04/12 00:50:41;;;;;;;8.30;6.30;;;9.80;99.90;;;;;;5113931;28;20262;-66
2021/04/12 00:53:25;;;;;;;11.63;7.15;;;9.80;99.90;;;;;;5095965;28;20195;-66
2021/04/12 00:56:31;;;;;;;13.00;8.38;;;9.70;99.90;;;;;;5113942;28;20210;-66
2021/04/12 00:58:57;;;;;;;8.68;7.25;;;9.80;99.90;;;;;;5083497;28;20776;-66
2021/04/12 01:01:37;;;;;;;12.30;7.43;;;9.90;99.90;;;;;;5113920;28;20302;-65
2021/04/12 01:04:29;;;;;;;12.50;9.60;;;10.00;99.90;;;;;;5113845;28;20188;-66
2021/04/12 01:07:32;;;;;;;8.35;6.40;;;10.00;99.90;;;;;;5114038;28;20176;-65
2021/04/12 01:10:22;;;;;;;18.85;7.80;;;9.90;99.90;;;;;;5113960;28;20175;-66
2021/04/12 01:13:12;;;;;;;5.93;5.35;;;9.90;99.90;;;;;;5114153;28;20204;-66
2021/04/12 01:16:05;;;;;;;10.30;5.88;;;9.70;99.90;;;;;;5113856;28;20168;-65
2021/04/12 01:18:38;;;;;;;10.85;6.20;;;9.20;99.90;;;;;;5113862;28;20200;-66
2021/04/12 01:21:23;;;;;;;7.13;5.95;;;8.80;99.90;;;;;;5113812;28;20206;-67
2021/04/12 01:24:07;;;;;;;6.25;5.25;;;8.80;99.90;;;;;;5113620;28;20268;-66
2021/04/12 01:26:51;;;;;;;8.20;6.28;;;8.80;99.90;;;;;;5113941;28;20175;-66
2021/04/12 01:29:38;;;;;;;13.35;8.63;;;8.60;99.90;;;;;;5113705;28;20672;-66
2021/04/12 01:32:41;;;;;;;14.10;7.88;;;9.00;99.90;;;;;;5117475;28;20579;-66
2021/04/12 01:35:35;;;;;;;10.93;8.50;;;9.20;99.90;;;;;;5117444;28;20171;-65
2021/04/12 01:38:00;;;;;;;10.00;6.80;;;9.30;99.90;;;;;;5099318;28;20573;-65
2021/04/12 01:40:51;;;;;;;11.87;7.57;;;9.30;99.90;;;;;;5098996;28;20207;-67
2021/04/12 01:43:34;;;;;;;10.52;7.47;;;9.20;99.90;;;;;;5098814;28;20503;-65
2021/04/12 01:46:30;;;;;;;9.70;7.85;;;9.20;99.90;;;;;;5117284;28;20188;-67
2021/04/12 01:49:00;;;;;;;9.80;8.68;;;9.20;99.90;;;;;;5098983;28;20214;-65
2021/04/12 01:51:35;;;;;;;12.80;8.70;;;9.20;99.90;;;;;;5117333;28;20302;-67
2021/04/12 01:54:29;;;;;;;10.02;6.40;;;9.20;99.90;;;;;;5117195;28;20653;-66
2021/04/12 01:57:25;;;;;;;10.07;6.88;;;9.20;99.90;;;;;;5117252;28;20225;-67
2021/04/12 02:00:15;;;;;;;12.55;6.45;;;9.30;99.90;;;;;;5117043;28;20846;-65
2021/04/12 02:02:50;;;;;;;11.85;8.27;;;9.30;99.90;;;;;;5117334;28;20640;-66
2021/04/12 02:05:37;;;;;;;9.80;7.75;;;9.20;99.90;;;;;;5116994;28;20246;-66
2021/04/12 02:08:30;;;;;;;17.42;9.43;;;9.20;99.90;;;;;;5117303;28;20195;-66
2021/04/12 02:11:32;;;;;;;10.80;7.88;;;9.20;99.90;;;;;;5116765;28;20160;-67
2021/04/12 02:14:03;;;;;;;10.07;7.47;;;9.10;99.90;;;;;;5098310;28;20198;-66
2021/04/12 02:16:58;;;;;;;12.07;7.85;;;9.10;99.90;;;;;;5116819;28;20176;-66
2021/04/12 02:19:46;;;;;;;7.30;6.70;;;9.10;99.90;;;;;;5111076;28;20195;-66
2021/04/12 02:22:36;;;;;;;9.88;7.22;;;8.90;99.90;;;;;;5116888;28;20230;-66
2021/04/12 02:25:30;;;;;;;9.90;8.10;;;8.80;99.90;;;;;;5116505;28;20535;-67
2021/04/12 02:27:55;;;;;;;10.13;8.50;;;8.80;99.90;;;;;;5116765;28;20547;-66
2021/04/12 02:30:28;;;;;;;12.13;8.63;;;8.70;99.90;;;;;;5098164;28;20183;-66
2021/04/12 02:33:00;;;;;;;9.30;8.02;;;8.70;99.90;;;;;;5116816;28;20603;-65
2021/04/12 02:35:59;;;;;;;11.88;7.18;;;8.70;99.90;;;;;;5098044;28;20171;-67
2021/04/12 02:38:34;;;;;;;8.38;7.53;;;8.60;99.90;;;;;;5097818;28;20204;-66
2021/04/12 02:41:13;;;;;;;7.05;5.78;;;8.60;99.90;;;;;;5116136;28;20203;-67
2021/04/12 02:44:03;;;;;;;11.88;8.15;;;8.70;99.90;;;;;;5116197;28;20537;-65
2021/04/12 02:47:06;;;;;;;9.65;6.13;;;8.70;99.90;;;;;;5116186;28;20175;-66
2021/04/12 02:49:50;;;;;;;7.55;6.32;;;8.60;99.90;;;;;;5115976;28;20545;-66
2021/04/12 02:52:57;;;;;;;14.63;6.05;;;8.50;99.90;;;;;;5075614;28;20238;-67
2021/04/12 02:55:43;;;;;;;11.07;6.68;;;8.50;99.90;;;;;;5073566;28;20654;-66
2021/04/12 02:58:14;;;;;;;5.88;4.65;;;8.50;99.90;;;;;;5075169;28;20201;-66
2021/04/12 03:01:07;;;;;;;10.05;8.63;;;8.40;99.90;;;;;;5075050;28;20212;-65
2021/04/12 03:03:48;;;;;;;9.15;6.30;;;8.50;99.90;;;;;;5073907;28;20204;-66
2021/04/12 03:06:40;;;;;;;6.97;6.22;;;8.40;99.90;;;;;;5073924;28;20193;-66
2021/04/12 03:09:31;;;;;;;10.32;6.65;;;8.30;99.90;;;;;;5073694;28;20205;-68
2021/04/12 03:12:30;;;;;;;10.25;8.02;;;8.30;99.90;;;;;;5075247;28;20189;-66
2021/04/12 03:15:19;;;;;;;8.90;6.72;;;8.20;99.90;;;;;;5074851;28;20180;-66
2021/04/12 03:18:02;;;;;;;13.13;10.00;;;8.20;99.90;;;;;;5075187;28;20284;-67
2021/04/12 03:20:40;;;;;;;13.27;8.18;;;8.20;99.90;;;;;;5074806;28;20208;-67
2021/04/12 03:23:34;;;;;;;9.80;6.70;;;8.20;99.90;;;;;;5075207;28;20670;-68
2021/04/12 03:26:26;;;;;;;6.90;6.30;;;8.20;99.90;;;;;;5074733;28;20605;-66
2021/04/12 03:28:59;;;;;;;8.93;6.00;;;8.50;99.90;;;;;;5074586;28;20748;-67
2021/04/12 03:31:46;;;;;;;6.20;4.20;;;8.90;99.90;;;;;;5073372;28;20202;-66
2021/04/12 03:34:41;;;;;;;6.97;4.22;;;8.80;99.90;;;;;;5074452;28;20197;-67
2021/04/12 03:37:24;;;;;;;9.63;6.75;;;8.80;99.90;;;;;;5037474;28;20240;-66
2021/04/12 03:40:27;;;;;;;8.35;6.00;;;8.80;99.90;;;;;;5074468;28;20187;-67
2021/04/12 03:43:29;;;;;;;8.05;5.57;;;8.70;99.90;;;;;;5039242;28;20221;-67
2021/04/12 03:46:24;;;;;;;10.30;5.70;;;8.40;99.90;;;;;;5072985;28;20180;-68
2021/04/12 03:49:31;;;;;;;8.70;5.75;;;8.20;99.90;;;;;;5074187;28;20197;-65
2021/04/12 03:52:20;;;;;;;10.25;9.00;;;8.00;99.90;;;;;;5112552;28;20250;-67
2021/04/12 03:54:58;;;;;;;13.88;7.35;;;8.00;99.90;;;;;;5114227;28;20685;-67
2021/04/12 03:57:41;;;;;;;6.80;5.22;;;8.00;99.90;;;;;;5115048;28;20176;-66
2021/04/12 04:00:21;;;;;;;11.93;7.70;;;8.00;99.90;;;;;;5114742;28;20187;-66
2021/04/12 04:03:22;;;;;;;9.32;6.75;;;8.00;99.90;;;;;;5096486;28;20242;-67
2021/04/12 04:06:09;;;;;;;9.80;7.28;;;8.00;99.90;;;;;;5114582;28;20167;-67
2021/04/12 04:08:57;;;;;;;6.70;6.10;;;8.00;99.90;;;;;;5114489;28;20227;-66
2021/04/12 04:11:31;;;;;;;8.00;6.35;;;8.00;99.90;;;;;;5114649;28;20236;-66
2021/04/12 04:14:27;;;;;;;7.07;6.03;;;8.10;99.90;;;;;;5114500;28;20196;-67
2021/04/12 04:17:04;;;;;;;10.65;6.45;;;8.10;99.90;;;;;;5096292;28;20180;-67
2021/04/12 04:20:04;;;;;;;9.52;7.43;;;8.10;99.90;;;;;;5114348;28;20196;-67
2021/04/12 04:22:54;;;;;;;7.82;5.88;;;8.20;99.90;;;;;;5129007;27;20592;-68
2021/04/12 04:25:40;;;;;;;8.30;6.13;;;8.20;99.90;;;;;;5123239;27;20228;-67
2021/04/12 04:28:17;;;;;;;11.38;8.50;;;8.30;99.90;;;;;;5115118;28;20665;-68
2021/04/12 04:31:14;;;;;;;10.50;6.63;;;8.20;99.90;;;;;;5126206;27;20191;-67
2021/04/12 04:34:05;;;;;;;7.82;6.13;;;8.20;99.90;;;;;;5116483;28;20203;-68
2021/04/12 04:36:49;;;;;;;11.00;5.72;;;8.40;99.90;;;;;;5117443;27;20184;-67
2021/04/12 04:39:18;;;;;;;7.55;6.13;;;8.50;99.90;;;;;;5120688;27;20303;-67
2021/04/12 04:42:07;;;;;;;4.07;3.65;;;8.60;99.90;;;;;;5103259;28;20277;-68
2021/04/12 04:44:51;;;;;;;4.47;3.38;;;8.80;99.90;;;;;;5117353;28;20728;-68
2021/04/12 04:47:35;;;;;;;4.15;3.75;;;9.00;99.90;;;;;;5116045;28;20187;-68
2021/04/12 04:50:09;;;;;;;5.70;4.78;;;9.00;99.90;;;;;;5120887;28;21081;-68
2021/04/12 04:52:52;;;;;;;10.20;4.60;;;8.90;99.90;;;;;;5121656;28;20179;-67
2021/04/12 04:55:42;;;;;;;9.95;4.20;;;9.00;99.90;;;;;;5117206;28;20575;-67
2021/04/12 04:58:37;;;;;;;9.90;4.75;;;9.20;99.90;;;;;;5122208;28;20210;-67
2021/04/12 05:01:40;;;;;;;6.82;3.78;;;9.10;99.90;;;;;;5116728;28;20284;-67
2021/04/12 05:04:39;;;;;;;4.55;4.15;;;9.10;99.90;;;;;;5125061;28;20322;-69
2021/04/12 05:07:29;;;;;;;3.75;3.40;;;9.10;99.90;;;;;;5122068;27;20223;-67
2021/04/12 05:10:20;;;;;;;5.80;4.75;;;9.10;99.90;;;;;;5117963;27;20178;-67
2021/04/12 05:13:23;;;;;;;7.97;4.90;;;9.40;99.90;;;;;;5126579;27;20344;-69
2021/04/12 05:16:01;;;;;;;5.82;5.10;;;9.00;99.90;;;;;;5105187;28;20211;-67
2021/04/12 05:18:49;;;;;;;5.25;3.58;;;8.80;99.90;;;;;;5107453;27;20211;-68
2021/04/12 05:21:38;;;;;;;14.27;8.07;;;8.70;99.90;;;;;;5124856;27;20668;-67
2021/04/12 05:24:47;;;;;;;7.32;5.32;;;8.80;99.90;;;;;;5122605;27;20549;-66
2021/04/12 05:27:45;;;;;;;9.60;4.57;;;8.80;99.90;;;;;;5126439;27;20184;-67
2021/04/12 05:30:37;;;;;;;8.43;5.93;;;9.20;99.90;;;;;;5110331;27;20179;-69
2021/04/12 05:33:51;;;;;;;10.63;6.20;;;9.20;99.90;;;;;;5120012;27;20218;-67
2021/04/12 05:36:47;;;;;;;10.50;6.88;;;9.30;99.90;;;;;;5109131;27;20200;-67
2021/04/12 05:39:37;;;;;;;14.02;6.38;;;9.40;99.90;;;;;;5123177;27;20186;-67
2021/04/12 05:42:22;;;;;;;8.85;7.65;;;9.40;99.90;;;;;;5122355;27;20215;-67
2021/04/12 05:45:09;;;;;;;14.32;8.98;;;9.60;99.90;;;;;;5119107;27;20250;-67
2021/04/12 05:48:03;;;;;;;7.30;5.35;;;9.70;99.90;;;;;;5117946;27;20207;-67
2021/04/12 05:50:50;;;;;;;8.63;6.20;;;9.90;99.90;;;;;;5124015;27;20231;-69
2021/04/12 05:53:39;;;;;;;7.75;5.80;;;10.00;99.90;;;;;;5118780;27;20340;-67
2021/04/12 05:56:41;;;;;;;6.60;4.80;;;10.20;99.90;;;;;;5125411;27;20597;-68
2021/04/12 05:59:26;;;;;;;10.65;5.82;;;10.40;99.90;;;;;;5109296;27;20211;-68
2021/04/12 06:02:12;;;;;;;9.85;6.90;;;10.50;99.90;;;;;;5120459;27;20231;-68
2021/04/12 06:04:56;;;;;;;6.40;4.82;;;10.70;99.90;;;;;;5118892;27;20558;-68
2021/04/12 06:07:54;;;;;;;6.13;4.60;;;10.80;99.90;;;;;;5119200;27;20187;-68
2021/04/12 06:10:51;;;;;;;8.57;6.55;;;11.10;99.90;;;;;;5123457;27;20179;-69
2021/04/12 06:13:44;;;;;;;4.25;3.95;;;11.20;99.90;;;;;;5122799;27;20211;-67
2021/04/12 06:16:42;;;;;;;12.57;6.95;;;11.30;99.90;;;;;;5121026;27;20189;-67
2021/04/12 06:19:29;;;;;;;7.00;6.20;;;11.60;99.90;;;;;;5121246;27;20212;-67
2021/04/12 06:21:55;;;;;;;8.77;6.32;;;11.80;99.90;;;;;;5118948;27;20664;-67
2021/04/12 06:24:23;;;;;;;9.20;5.70;;;12.00;99.90;;;;;;5121539;27;20195;-68
2021/04/12 06:27:04;;;;;;;7.25;4.95;;;12.20;99.90;;;;;;5107932;28;20278;-71
2021/04/12 06:30:02;;;;;;;8.52;6.47;;;12.50;99.90;;;;;;5131836;27;20536;-67
2021/04/12 06:32:43;;;;;;;12.57;5.75;;;12.70;99.90;;;;;;5128363;27;20184;-68
2021/04/12 06:35:31;;;;;;;10.98;6.68;;;12.90;99.90;;;;;;5102930;27;20716;-67
2021/04/12 06:38:05;;;;;;;6.07;4.97;;;13.00;99.90;;;;;;5104176;27;20207;-68
2021/04/12 06:41:09;;;;;;;9.45;5.40;;;13.10;99.90;;;;;;5102274;28;20182;-67
2021/04/12 06:44:12;;;;;;;6.40;4.30;;;13.40;99.90;;;;;;5116198;27;20749;-68
2021/04/12 06:47:15;;;;;;;10.63;5.40;;;13.40;99.90;;;;;;5102612;28;20773;-69
2021/04/12 06:50:05;;;;;;;13.90;6.37;;;13.70;99.90;;;;;;5115858;28;20424;-68
2021/04/12 06:52:33;;;;;;;7.53;5.43;;;13.80;99.90;;;;;;5123983;27;20435;-67
2021/04/12 06:55:18;;;;;;;9.13;4.80;;;14.00;99.90;;;;;;5127951;27;20858;-68
2021/04/12 06:58:02;;;;;;;8.87;6.57;;;14.30;99.90;;;;;;5101988;27;20467;-67
2021/04/12 07:00:52;;;;;;;9.40;6.33;;;14.50;99.90;;;;;;5130175;27;20421;-68
2021/04/12 07:03:59;;;;;;;7.93;5.63;;;14.70;99.90;;;;;;5124752;27;21009;-68
2021/04/12 07:07:03;;;;;;;4.37;3.90;;;14.70;99.90;;;;;;5105529;27;20436;-67
2021/04/12 07:09:50;;;;;;;10.20;6.27;;;14.80;99.90;;;;;;5122065;27;20979;-68
2021/04/12 07:12:16;;;;;;;7.20;6.20;;;15.10;99.90;;;;;;5121019;27;20463;-68
2021/04/12 07:14:53;;;;;;;10.67;6.70;;;15.20;99.90;;;;;;5124014;27;20926;-67
2021/04/12 07:17:49;;;;;;;9.43;5.70;;;15.30;99.90;;;;;;5122623;27;20195;-69
2021/04/12 07:20:25;;;;;;;6.43;5.57;;;15.50;99.90;;;;;;5120551;27;20424;-68
2021/04/12 07:22:50;;;;;;;6.77;5.47;;;15.40;99.90;;;;;;5128097;27;20490;-67
2021/04/12 07:25:34;;;;;;;12.27;7.00;;;15.40;99.90;;;;;;5111524;27;20882;-68
2021/04/12 07:28:26;;;;;;;8.60;5.50;;;15.80;99.90;;;;;;5119329;27;20668;-68
2021/04/12 07:31:19;;;;;;;7.20;6.17;;;15.90;99.90;;;;;;5129273;27;20507;-68
2021/04/12 07:34:11;;;;;;;8.77;6.70;;;16.00;99.90;;;;;;5103530;27;21014;-67
2021/04/12 07:37:13;;;;;;;10.67;5.90;;;16.10;99.90;;;;;;5113675;28;20519;-69
2021/04/12 07:40:02;;;;;;;6.50;4.63;;;16.40;99.90;;;;;;5113021;28;20428;-70
2021/04/12 07:43:02;;;;;;;10.37;5.57;;;16.40;99.90;;;;;;5096199;28;20487;-70
2021/04/12 07:46:10;;;;;;;8.20;4.93;;;16.60;99.90;;;;;;5115316;27;20428;-68
2021/04/12 07:49:16;;;;;;;11.37;4.60;;;16.80;99.90;;;;;;5113387;27;20455;-70
2021/04/12 07:52:03;;;;;;;9.20;5.17;;;16.70;99.90;;;;;;5114125;27;20523;-69
2021/04/12 07:54:59;;;;;;;8.30;5.27;;;16.70;99.90;;;;;;5113089;27;20439;-68
2021/04/12 07:58:03;;;;;;;4.43;3.57;;;17.30;99.90;;;;;;5131580;27;20773;-68
2021/04/12 08:01:12;;;;;;;4.97;4.33;;;17.50;99.30;;;;;;5113419;27;20470;-67
2021/04/12 08:04:18;;;;;;;4.50;4.07;;;18.00;99.30;;;;;;5118451;27;20500;-68
2021/04/12 08:07:05;;;;;;;7.97;5.90;;;18.00;98.80;;;;;;5103061;28;20462;-68
2021/04/12 08:09:49;;;;;;;5.93;3.60;;;18.20;98.50;;;;;;5125838;27;20456;-67
2021/04/12 08:12:46;;;;;;;6.97;3.20;;;17.90;96.50;;;;;;5135139;27;20443;-68
2021/04/12 08:15:39;;;;;;;5.67;4.70;;;18.10;95.50;;;;;;5123214;27;20410;-67
2021/04/12 08:18:29;;;;;;;5.40;3.77;;;18.10;96.70;;;;;;5124273;27;20474;-69
2021/04/12 08:21:23;;;;;;;4.37;3.00;;;18.10;95.10;;;;;;5114073;28;20456;-68
2021/04/12 08:24:10;;;;;;;6.00;3.73;;;18.40;94.30;;;;;;5118660;27;20452;-70
2021/04/12 08:27:01;;;;;;;9.07;4.30;;;18.50;93.50;;;;;;5099117;28;20449;-69
2021/04/12 08:29:57;;;;;;;3.97;3.07;;;18.20;93.50;;;;;;5114887;27;20434;-68
2021/04/12 08:33:13;;;;;;;4.70;3.57;;;18.60;92.00;;;;;;5115014;27;20492;-69
2021/04/12 08:35:57;;;;;;;7.13;3.60;;;19.00;92.10;;;;;;5084550;28;20429;-67
2021/04/12 08:39:00;;;;;;;7.73;4.20;;;19.50;92.10;;;;;;5113113;27;20478;-68
2021/04/12 08:41:51;;;;;;;10.03;4.77;;;19.50;91.00;;;;;;5114680;28;20486;-67
2021/04/12 08:44:52;;;;;;;5.50;2.97;;;19.60;90.40;;;;;;5114873;28;20449;-67
2021/04/12 08:47:50;;;;;;;4.63;2.83;;;19.90;90.30;;;;;;5106316;28;20481;-67
2021/04/12 08:50:36;;;;;;;5.37;4.00;;;20.70;87.90;;;;;;5096763;28;20467;-67
2021/04/12 08:53:29;;;;;;;4.70;3.13;;;21.30;82.80;;;;;;5099669;28;20852;-67
2021/04/12 08:56:19;;;;;;;3.20;3.00;;;21.40;86.00;;;;;;5116665;28;20523;-69
2021/04/12 08:59:06;;;;;;;4.33;3.50;;;21.20;81.40;;;;;;5113499;28;20459;-68
2021/04/12 09:01:40;;;;;;;4.67;3.50;;;21.40;81.30;;;;;;5114256;28;20518;-68
2021/04/12 09:04:20;;;;;;;4.10;2.77;;;21.40;79.40;;;;;;5106394;28;20459;-69
2021/04/12 09:07:22;;;;;;;3.93;3.33;;;21.70;79.20;;;;;;5114197;28;20742;-68
2021/04/12 09:10:22;;;;;;;6.93;3.40;;;21.80;77.10;;;;;;5114096;28;20759;-68
2021/04/12 09:13:12;;;;;;;6.30;3.20;;;21.80;78.60;;;;;;5119988;28;20462;-68
2021/04/12 09:16:14;;;;;;;4.10;3.40;;;22.30;77.50;;;;;;5112889;28;20429;-68
2021/04/12 09:18:54;;;;;;;4.10;2.80;;;22.00;78.40;;;;;;5118289;28;20459;-67
2021/04/12 09:22:10;;;;;;;2.67;2.47;;;22.10;77.20;;;;;;5105516;28;20476;-68
2021/04/12 09:25:04;;;;;;;3.43;2.80;;;22.10;74.90;;;;;;5048646;28;20467;-68
2021/04/12 09:27:45;;;;;;;2.30;1.97;;;21.70;76.40;;;;;;5041618;28;20529;-67
2021/04/12 09:30:45;;;;;;;2.63;2.40;;;22.10;75.00;;;;;;5100842;28;20414;-68
2021/04/12 09:33:54;;;;;;;2.83;1.80;;;21.70;74.20;;;;;;5100388;28;20463;-67
2021/04/12 09:37:02;;;;;;;4.73;3.13;;;21.30;74.20;;;;;;5114492;28;20782;-68
2021/04/12 09:39:40;;;;;;;11.93;3.50;;;22.00;74.50;;;;;;5078012;28;20441;-67
2021/04/12 09:42:06;;;;;;;3.63;2.63;;;22.10;73.10;;;;;;5111506;28;20480;-70
2021/04/12 09:44:53;;;;;;;7.73;3.10;;;22.50;74.10;;;;;;5112117;28;20438;-67
2021/04/12 09:47:48;;;;;;;1.60;1.50;;;22.60;71.70;;;;;;5116421;28;20268;-68
2021/04/12 09:50:48;;;;;;;4.43;2.60;;;21.40;72.90;;;;;;5098927;28;20486;-68
2021/04/12 09:53:51;;;;;;;3.60;1.97;;;21.90;75.10;;;;;;5102998;27;20879;-68
2021/04/12 09:56:58;;;;;;;3.43;2.23;;;22.50;71.90;;;;;;5121284;27;20545;-69
2021/04/12 10:00:04;;;;;;;2.20;2.00;;;21.40;74.00;;;;;;5071582;28;20447;-68
2021/04/12 10:02:51;;;;;;;3.87;1.33;;;21.80;72.80;;;;;;5101753;27;20957;-68
2021/04/12 10:05:38;;;;;;;3.40;2.23;;;22.30;71.70;;;;;;5124360;27;20433;-69
2021/04/12 10:08:25;;;;;;;5.53;2.63;;;22.70;72.00;;;;;;5116684;27;20461;-68
2021/04/12 10:11:00;;;;;;;3.63;2.60;;;22.40;72.40;;;;;;5118064;27;21291;-68
2021/04/12 10:13:37;;;;;;;3.73;2.83;;;22.90;71.70;;;;;;5122008;27;20963;-66
2021/04/12 10:16:45;;;;;;;3.40;2.30;;;23.20;71.80;;;;;;5105485;27;20860;-68
2021/04/12 10:19:18;;;;;;;8.67;2.23;;;22.80;71.40;;;;;;5062482;28;20466;-70
2021/04/12 10:22:11;;;;;;;5.03;1.97;;;22.60;72.30;;;;;;5070117;28;20708;-68
2021/04/12 10:24:53;;;;;;;6.43;2.10;;;22.50;71.10;;;;;;5112068;27;20446;-70
2021/04/12 10:27:37;;;;;;;4.07;3.00;;;22.40;72.10;;;;;;5117933;27;20508;-70
2021/04/12 10:30:19;;;;;;;3.00;2.63;;;22.50;71.40;;;;;;5126193;27;20415;-69
2021/04/12 10:33:03;;;;;;;3.33;2.20;;;22.40;71.10;;;;;;5128686;27;20489;-68
2021/04/12 10:35:51;;;;;;;1.70;1.60;;;22.30;70.90;;;;;;5121256;27;20431;-68
2021/04/12 10:38:37;;;;;;;5.07;2.20;;;22.10;70.90;;;;;;5121724;27;21080;-67
2021/04/12 10:41:53;;;;;;;3.70;2.10;;;22.10;71.30;;;;;;5109806;27;20460;-68
2021/04/12 10:44:34;;;;;;;4.23;2.17;;;21.90;70.90;;;;;;5083247;28;20995;-67
2021/04/12 10:47:09;;;;;;;3.33;2.33;;;21.40;72.30;;;;;;5105172;27;20435;-68
2021/04/12 10:50:05;;;;;;;3.67;2.33;;;21.50;71.70;;;;;;5117016;27;20944;-68
2021/04/12 10:52:56;;;;;;;3.67;2.60;;;21.60;71.60;;;;;;5118647;27;20453;-68
2021/04/12 10:55:46;;;;;;;4.13;2.00;;;21.40;72.30;;;;;;5103393;28;20432;-69
2021/04/12 10:58:26;;;;;;;2.60;2.40;;;21.10;73.80;;;;;;5129055;27;20458;-69
2021/04/12 11:01:07;;;;;;;1.63;1.53;;;21.20;73.30;;;;;;5123543;27;20566;-68
2021/04/12 11:04:01;;;;;;;3.93;2.73;;;21.70;73.80;;;;;;5118707;27;20446;-68
2021/04/12 11:06:49;;;;;;;3.23;2.53;;;21.60;72.40;;;;;;5126408;27;20525;-70
2021/04/12 11:09:17;;;;;;;4.07;1.73;;;21.80;72.60;;;;;;5127044;27;20459;-66
2021/04/12 11:12:17;;;;;;;2.90;2.43;;;22.10;71.90;;;;;;5106543;27;20484;-68
2021/04/12 11:14:55;;;;;;;4.60;2.97;;;21.80;71.50;;;;;;5110536;27;20538;-67
2021/04/12 11:18:03;;;;;;;3.27;2.17;;;21.30;72.00;;;;;;5121351;27;20783;-68
2021/04/12 11:20:35;;;;;;;4.40;1.50;;;21.10;72.80;;;;;;5069535;27;20788;-68
2021/04/12 11:23:18;;;;;;;3.20;2.43;;;21.30;72.20;;;;;;5109748;27;20451;-68
2021/04/12 11:25:58;;;;;;;6.50;4.40;;;21.00;71.80;;;;;;5102085;27;20454;-68
2021/04/12 11:29:00;;;;;;;6.50;2.10;;;20.80;72.00;;;;;;5118970;27;20454;-69
2021/04/12 11:32:03;;;;;;;2.67;1.93;;;20.90;72.40;;;;;;5125016;27;20419;-69
2021/04/12 11:34:38;;;;;;;2.70;1.63;;;21.10;71.60;;;;;;5112566;27;20450;-68
2021/04/12 11:37:35;;;;;;;4.27;2.27;;;20.70;72.30;;;;;;5117675;27;20511;-67
2021/04/12 11:40:17;;;;;;;1.80;1.60;;;20.90;71.60;;;;;;5093561;27;20432;-69
2021/04/12 11:42:51;;;;;;;2.00;1.77;;;20.70;72.10;;;;;;5123985;27;20979;-67
2021/04/12 11:45:25;;;;;;;2.73;1.97;;;20.80;72.80;;;;;;5124487;27;20416;-67
2021/04/12 11:48:09;;;;;;;1.73;1.53;;;20.60;73.40;;;;;;5131001;27;20530;-66
2021/04/12 11:50:48;;;;;;;2.30;2.03;;;20.70;74.00;;;;;;5132812;27;20478;-67
2021/04/12 11:53:26;;;;;;;2.30;1.77;;;20.80;73.60;;;;;;5107957;28;20452;-68
2021/04/12 11:56:13;;;;;;;3.03;2.50;;;20.80;76.00;;;;;;5112329;28;20408;-68
2021/04/12 11:58:45;;;;;;;1.90;1.70;;;20.90;73.80;;;;;;5113581;28;20481;-67
2021/04/12 12:01:19;;;;;;;3.33;2.00;;;20.90;75.50;;;;;;5114905;27;20470;-68
2021/04/12 12:04:09;;;;;;;6.27;2.40;;;21.00;74.40;;;;;;5116351;27;20530;-66
2021/04/12 12:06:54;;;;;;;4.83;3.00;;;20.90;73.20;;;;;;5096407;28;20436;-68
2021/04/12 12:09:50;;;;;;;2.97;2.20;;;20.90;72.50;;;;;;5118341;27;20452;-68
2021/04/12 12:12:25;;;;;;;2.20;1.67;;;20.80;72.30;;;;;;5096694;27;20444;-67
2021/04/12 12:14:59;;;;;;;7.70;2.27;;;20.90;72.40;;;;;;5120378;27;20431;-68
2021/04/12 12:17:32;;;;;;;5.80;2.53;;;20.90;73.70;;;;;;5131671;27;20533;-69
2021/04/12 12:20:21;;;;;;;2.00;1.90;;;20.90;72.20;;;;;;5105993;28;20811;-69
2021/04/12 12:23:35;;;;;;;4.10;3.00;;;20.90;71.90;;;;;;5117554;27;20486;-69
2021/04/12 12:26:04;;;;;;;6.20;2.90;;;20.90;71.40;;;;;;5075834;28;20441;-69
2021/04/12 12:28:57;;;;;;;5.20;2.10;;;20.80;71.60;;;;;;5096850;28;20436;-67
2021/04/12 12:31:35;;;;;;;2.53;2.07;;;21.00;72.10;;;;;;5119228;27;20534;-68
2021/04/12 12:34:37;;;;;;;2.03;1.60;;;21.10;72.90;;;;;;5131784;27;20437;-68
2021/04/12 12:37:03;;;;;;;3.20;2.23;;;21.20;72.30;;;;;;5106091;27;20436;-68
2021/04/12 12:39:38;;;;;;;2.23;1.63;;;21.40;72.70;;;;;;5105779;27;21002;-69
2021/04/12 12:42:10;;;;;;;2.23;2.00;;;21.40;72.30;;;;;;5116919;28;20254;-69
2021/04/12 12:44:38;;;;;;;2.10;1.90;;;21.40;72.20;;;;;;5128340;28;20809;-69
2021/04/12 12:47:10;;;;;;;4.10;2.03;;;21.60;72.30;;;;;;5104421;28;20436;-67
2021/04/12 12:49:42;;;;;;;2.93;1.80;;;21.80;73.90;;;;;;5124907;28;20442;-68
2021/04/12 12:52:13;;;;;;;2.40;2.03;;;22.30;70.90;;;;;;5123971;28;20440;-68
2021/04/12 12:54:50;;;;;;;3.00;2.00;;;22.40;70.30;;;;;;5117046;28;20569;-68
2021/04/12 12:57:36;;;;;;;4.30;2.20;;;22.70;70.50;;;;;;5118878;28;20438;-69
2021/04/12 13:00:17;;;;;;;5.00;2.63;;;23.00;69.40;;;;;;5125820;28;20467;-68
2021/04/12 13:02:45;;;;;;;3.10;2.30;;;23.20;68.50;;;;;;5097875;28;20597;-67
2021/04/12 13:05:24;;;;;;;5.03;2.30;;;23.30;68.60;;;;;;5102893;28;20982;-67
2021/04/12 13:07:52;;;;;;;2.50;1.80;;;23.40;68.10;;;;;;5117845;28;20466;-68
2021/04/12 13:10:25;;;;;;;4.00;2.17;;;23.40;68.10;;;;;;5103419;28;20428;-68
2021/04/12 13:12:52;;;;;;;2.27;2.10;;;23.40;67.10;;;;;;5120973;28;20888;-68
2021/04/12 13:15:27;;;;;;;3.33;1.80;;;23.20;67.60;;;;;;5118744;28;20775;-68
2021/04/12 13:18:02;;;;;;;2.27;2.07;;;23.40;68.50;;;;;;5121124;28;20496;-67
2021/04/12 13:20:38;;;;;;;3.77;2.77;;;23.80;66.60;;;;;;5120440;28;20462;-70
2021/04/12 13:23:37;;;;;;;5.13;1.93;;;23.90;67.10;;;;;;5128393;28;21026;-68
2021/04/12 13:26:18;;;;;;;2.80;1.93;;;24.00;67.00;;;;;;5095637;28;20435;-68
2021/04/12 13:28:45;;;;;;;3.33;2.07;;;23.80;66.50;;;;;;5116672;28;20419;-68
2021/04/12 13:31:34;;;;;;;3.60;2.33;;;23.80;66.00;;;;;;5122968;27;20415;-67
2021/04/12 13:34:11;;;;;;;4.80;2.10;;;24.00;65.90;;;;;;5127656;27;20442;-69
2021/04/12 13:36:42;;;;;;;4.33;2.00;;;24.00;65.50;;;;;;5120177;27;20437;-68
2021/04/12 13:39:15;;;;;;;2.83;1.80;;;23.90;65.30;;;;;;5115694;27;20533;-68
2021/04/12 13:41:47;;;;;;;2.90;2.00;;;24.10;64.90;;;;;;5124132;27;20883;-70
2021/04/12 13:44:20;;;;;;;2.63;2.00;;;23.80;65.70;;;;;;5122922;27;20442;-68
2021/04/12 13:47:04;;;;;;;11.50;2.10;;;23.50;66.10;;;;;;5119765;27;20444;-68
2021/04/12 13:49:42;;;;;;;1.63;1.47;;;23.40;65.80;;;;;;5123195;27;20719;-68
2021/04/12 13:52:18;;;;;;;2.00;1.70;;;22.60;66.00;;;;;;5126882;27;20815;-69
2021/04/12 13:54:51;;;;;;;9.83;4.77;;;22.30;66.60;;;;;;5119859;27;21039;-69
2021/04/12 13:57:24;;;;;;;3.67;3.00;;;22.10;66.90;;;;;;5121322;27;21007;-69
2021/04/12 14:00:06;;;;;;;2.20;1.63;;;22.30;67.00;;;;;;5116470;27;20473;-70
2021/04/12 14:02:36;;;;;;;1.97;1.60;;;22.30;66.50;;;;;;5120571;27;20472;-69
2021/04/12 14:05:12;;;;;;;6.80;3.43;;;22.50;67.00;;;;;;5121155;27;20772;-68
2021/04/12 14:07:46;;;;;;;1.93;1.73;;;22.40;66.20;;;;;;5114869;27;20442;-68
2021/04/12 14:10:21;;;;;;;1.60;1.20;;;22.70;65.80;;;;;;5122096;27;20433;-67
2021/04/12 14:12:57;;;;;;;9.83;2.37;;;22.70;65.50;;;;;;5116858;27;20459;-69
2021/04/12 14:15:44;;;;;;;3.70;1.63;;;22.90;65.80;;;;;;5127927;27;20813;-68
2021/04/12 14:18:13;;;;;;;2.23;1.90;;;23.20;65.10;;;;;;5120644;27;20550;-67
2021/04/12 14:20:46;;;;;;;4.10;2.27;;;23.40;65.50;;;;;;5118463;27;20824;-70
2021/04/12 14:23:30;;;;;;;5.33;1.40;;;23.60;64.80;;;;;;5121560;27;20440;-69
2021/04/12 14:26:00;;;;;;;3.63;1.70;;;23.50;64.30;;;;;;5123956;27;20424;-69
2021/04/12 14:28:29;;;;;;;6.53;1.57;;;23.20;64.50;;;;;;5122609;27;20429;-68